sensor_id;sensor_type;location;lat;lon;timestamp;P1;durP1;ratioP1;P2;durP2;ratioP2
66559;SDS011;53413;49.878;8.142;2023-02-07T00:01:51;6.90;;;2.43;;
66559;SDS011;53413;49.878;8.142;2023-02-07T00:04:16;6.93;;;2.58;;
66559;SDS011;53413;49.878;8.142;2023-02-07T00:06:41;7.05;;;2.65;;
66559;SDS011;53413;49.878;8.142;2023-02-07T00:09:07;6.90;;;2.50;;
66559;SDS011;53413;49.878;8.142;2023-02-07T00:11:34;7.53;;;2.77;;
66559;SDS011;53413;49.878;8.142;2023-02-07T00:14:04;6.80;;;2.58;;
66559;SDS011;53413;49.878;8.142;2023-02-07T00:16:32;6.70;;;2.67;;
66559;SDS011;53413;49.878;8.142;2023-02-07T00:18:57;6.95;;;2.58;;
66559;SDS011;53413;49.878;8.142;2023-02-07T00:21:23;7.07;;;2.67;;
66559;SDS011;53413;49.878;8.142;2023-02-07T00:23:50;6.25;;;2.40;;
66559;SDS011;53413;49.878;8.142;2023-02-07T00:26:17;7.35;;;2.67;;
66559;SDS011;53413;49.878;8.142;2023-02-07T00:28:44;7.60;;;2.50;;
66559;SDS011;53413;49.878;8.142;2023-02-07T00:31:12;7.75;;;2.72;;
66559;SDS011;53413;49.878;8.142;2023-02-07T00:33:43;7.47;;;2.63;;
66559;SDS011;53413;49.878;8.142;2023-02-07T00:36:14;7.93;;;2.50;;
66559;SDS011;53413;49.878;8.142;2023-02-07T00:38:42;7.90;;;2.70;;
66559;SDS011;53413;49.878;8.142;2023-02-07T00:41:08;5.75;;;2.28;;
66559;SDS011;53413;49.878;8.142;2023-02-07T00:43:34;6.90;;;2.50;;
66559;SDS011;53413;49.878;8.142;2023-02-07T00:46:01;6.27;;;2.33;;
66559;SDS011;53413;49.878;8.142;2023-02-07T00:48:28;6.88;;;2.40;;
66559;SDS011;53413;49.878;8.142;2023-02-07T00:50:54;7.07;;;2.50;;
66559;SDS011;53413;49.878;8.142;2023-02-07T00:53:20;7.67;;;2.23;;
66559;SDS011;53413;49.878;8.142;2023-02-07T00:55:45;7.40;;;2.58;;
66559;SDS011;53413;49.878;8.142;2023-02-07T00:58:11;7.55;;;2.10;;
66559;SDS011;53413;49.878;8.142;2023-02-07T01:00:36;5.87;;;2.10;;
66559;SDS011;53413;49.878;8.142;2023-02-07T01:03:01;6.40;;;2.20;;
66559;SDS011;53413;49.878;8.142;2023-02-07T01:05:27;7.03;;;2.30;;
66559;SDS011;53413;49.878;8.142;2023-02-07T01:07:52;6.10;;;2.30;;
66559;SDS011;53413;49.878;8.142;2023-02-07T01:10:19;6.32;;;2.13;;
66559;SDS011;53413;49.878;8.142;2023-02-07T01:12:45;5.55;;;2.03;;
66559;SDS011;53413;49.878;8.142;2023-02-07T01:15:10;7.55;;;1.95;;
66559;SDS011;53413;49.878;8.142;2023-02-07T01:17:35;7.10;;;2.10;;
66559;SDS011;53413;49.878;8.142;2023-02-07T01:20:01;8.37;;;2.30;;
66559;SDS011;53413;49.878;8.142;2023-02-07T01:22:26;9.27;;;2.50;;
66559;SDS011;53413;49.878;8.142;2023-02-07T01:24:52;6.28;;;2.03;;
66559;SDS011;53413;49.878;8.142;2023-02-07T01:27:19;6.93;;;2.40;;
66559;SDS011;53413;49.878;8.142;2023-02-07T01:29:45;6.88;;;2.20;;
66559;SDS011;53413;49.878;8.142;2023-02-07T01:32:11;7.70;;;2.22;;
66559;SDS011;53413;49.878;8.142;2023-02-07T01:34:36;6.67;;;1.90;;
66559;SDS011;53413;49.878;8.142;2023-02-07T01:37:01;6.93;;;2.53;;
66559;SDS011;53413;49.878;8.142;2023-02-07T01:39:27;6.23;;;2.30;;
66559;SDS011;53413;49.878;8.142;2023-02-07T01:41:52;6.20;;;2.30;;
66559;SDS011;53413;49.878;8.142;2023-02-07T01:46:46;5.50;;;1.98;;
66559;SDS011;53413;49.878;8.142;2023-02-07T01:49:12;5.80;;;1.88;;
66559;SDS011;53413;49.878;8.142;2023-02-07T01:51:41;5.10;;;1.90;;
66559;SDS011;53413;49.878;8.142;2023-02-07T01:54:12;5.90;;;2.20;;
66559;SDS011;53413;49.878;8.142;2023-02-07T01:56:45;5.57;;;2.08;;
66559;SDS011;53413;49.878;8.142;2023-02-07T01:59:16;6.45;;;2.15;;
66559;SDS011;53413;49.878;8.142;2023-02-07T02:01:42;6.07;;;2.30;;
66559;SDS011;53413;49.878;8.142;2023-02-07T02:04:10;5.50;;;2.08;;
66559;SDS011;53413;49.878;8.142;2023-02-07T02:06:35;4.93;;;1.90;;
66559;SDS011;53413;49.878;8.142;2023-02-07T02:09:07;5.43;;;2.28;;
66559;SDS011;53413;49.878;8.142;2023-02-07T02:11:42;5.25;;;2.00;;
66559;SDS011;53413;49.878;8.142;2023-02-07T02:22:04;5.97;;;2.40;;
66559;SDS011;53413;49.878;8.142;2023-02-07T02:30:24;6.13;;;2.10;;
66559;SDS011;53413;49.878;8.142;2023-02-07T02:35:42;6.53;;;2.33;;
66559;SDS011;53413;49.878;8.142;2023-02-07T02:40:53;6.10;;;2.50;;
66559;SDS011;53413;49.878;8.142;2023-02-07T02:46:11;7.10;;;2.72;;
66559;SDS011;53413;49.878;8.142;2023-02-07T02:48:41;7.40;;;2.80;;
66559;SDS011;53413;49.878;8.142;2023-02-07T02:51:08;6.78;;;2.60;;
66559;SDS011;53413;49.878;8.142;2023-02-07T02:53:34;7.63;;;2.83;;
66559;SDS011;53413;49.878;8.142;2023-02-07T02:58:59;9.05;;;3.08;;
66559;SDS011;53413;49.878;8.142;2023-02-07T03:12:16;7.70;;;2.80;;
66559;SDS011;53413;49.878;8.142;2023-02-07T03:20:18;7.10;;;2.70;;
66559;SDS011;53413;49.878;8.142;2023-02-07T03:22:46;7.60;;;2.72;;
66559;SDS011;53413;49.878;8.142;2023-02-07T03:25:14;8.10;;;3.22;;
66559;SDS011;53413;49.878;8.142;2023-02-07T03:27:41;8.10;;;3.05;;
66559;SDS011;53413;49.878;8.142;2023-02-07T03:30:09;7.20;;;2.65;;
66559;SDS011;53413;49.878;8.142;2023-02-07T03:32:40;8.50;;;3.00;;
66559;SDS011;53413;49.878;8.142;2023-02-07T03:35:12;7.43;;;2.67;;
66559;SDS011;53413;49.878;8.142;2023-02-07T03:37:45;7.30;;;2.90;;
66559;SDS011;53413;49.878;8.142;2023-02-07T03:40:15;7.82;;;3.22;;
66559;SDS011;53413;49.878;8.142;2023-02-07T03:42:52;7.85;;;3.00;;
66559;SDS011;53413;49.878;8.142;2023-02-07T03:45:23;7.93;;;2.87;;
66559;SDS011;53413;49.878;8.142;2023-02-07T03:47:49;8.27;;;2.90;;
66559;SDS011;53413;49.878;8.142;2023-02-07T03:50:15;7.57;;;3.07;;
66559;SDS011;53413;49.878;8.142;2023-02-07T03:52:40;8.60;;;3.38;;
66559;SDS011;53413;49.878;8.142;2023-02-07T03:55:06;8.13;;;3.30;;
66559;SDS011;53413;49.878;8.142;2023-02-07T03:57:32;8.52;;;3.28;;
66559;SDS011;53413;49.878;8.142;2023-02-07T03:59:57;9.30;;;3.50;;
66559;SDS011;53413;49.878;8.142;2023-02-07T04:02:22;8.80;;;3.30;;
66559;SDS011;53413;49.878;8.142;2023-02-07T04:04:48;8.13;;;3.03;;
66559;SDS011;53413;49.878;8.142;2023-02-07T04:07:13;7.93;;;2.80;;
66559;SDS011;53413;49.878;8.142;2023-02-07T04:09:39;8.13;;;2.95;;
66559;SDS011;53413;49.878;8.142;2023-02-07T04:12:04;6.80;;;2.20;;
66559;SDS011;53413;49.878;8.142;2023-02-07T04:14:29;8.87;;;3.27;;
66559;SDS011;53413;49.878;8.142;2023-02-07T04:16:55;8.33;;;3.00;;
66559;SDS011;53413;49.878;8.142;2023-02-07T04:19:20;8.00;;;2.92;;
66559;SDS011;53413;49.878;8.142;2023-02-07T04:21:46;8.25;;;3.20;;
66559;SDS011;53413;49.878;8.142;2023-02-07T04:24:12;9.17;;;3.30;;
66559;SDS011;53413;49.878;8.142;2023-02-07T04:26:37;10.27;;;3.70;;
66559;SDS011;53413;49.878;8.142;2023-02-07T04:29:03;9.80;;;3.67;;
66559;SDS011;53413;49.878;8.142;2023-02-07T04:31:29;9.35;;;3.20;;
66559;SDS011;53413;49.878;8.142;2023-02-07T04:33:54;9.63;;;3.67;;
66559;SDS011;53413;49.878;8.142;2023-02-07T04:36:19;10.00;;;3.60;;
66559;SDS011;53413;49.878;8.142;2023-02-07T04:38:46;9.93;;;3.70;;
66559;SDS011;53413;49.878;8.142;2023-02-07T04:41:12;12.47;;;4.23;;
66559;SDS011;53413;49.878;8.142;2023-02-07T04:43:37;10.80;;;4.00;;
66559;SDS011;53413;49.878;8.142;2023-02-07T04:46:03;10.60;;;4.17;;
66559;SDS011;53413;49.878;8.142;2023-02-07T04:48:29;11.45;;;4.20;;
66559;SDS011;53413;49.878;8.142;2023-02-07T04:50:55;10.90;;;4.20;;
66559;SDS011;53413;49.878;8.142;2023-02-07T04:53:20;12.27;;;4.68;;
66559;SDS011;53413;49.878;8.142;2023-02-07T04:55:49;13.25;;;6.13;;
66559;SDS011;53413;49.878;8.142;2023-02-07T04:58:16;13.60;;;5.50;;
66559;SDS011;53413;49.878;8.142;2023-02-07T05:00:42;11.13;;;4.97;;
66559;SDS011;53413;49.878;8.142;2023-02-07T05:03:08;11.73;;;4.30;;
66559;SDS011;53413;49.878;8.142;2023-02-07T05:05:36;10.73;;;4.53;;
66559;SDS011;53413;49.878;8.142;2023-02-07T05:08:03;11.95;;;4.50;;
66559;SDS011;53413;49.878;8.142;2023-02-07T05:10:28;12.73;;;4.53;;
66559;SDS011;53413;49.878;8.142;2023-02-07T05:12:53;12.20;;;4.60;;
66559;SDS011;53413;49.878;8.142;2023-02-07T05:15:19;11.90;;;4.55;;
66559;SDS011;53413;49.878;8.142;2023-02-07T05:17:44;13.35;;;4.75;;
66559;SDS011;53413;49.878;8.142;2023-02-07T05:20:10;12.77;;;4.30;;
66559;SDS011;53413;49.878;8.142;2023-02-07T05:22:35;14.87;;;4.70;;
66559;SDS011;53413;49.878;8.142;2023-02-07T05:25:01;10.23;;;3.90;;
66559;SDS011;53413;49.878;8.142;2023-02-07T05:27:26;13.20;;;5.03;;
66559;SDS011;53413;49.878;8.142;2023-02-07T05:29:51;12.43;;;4.70;;
66559;SDS011;53413;49.878;8.142;2023-02-07T05:32:17;12.00;;;4.73;;
66559;SDS011;53413;49.878;8.142;2023-02-07T05:35:01;15.32;;;5.32;;
66559;SDS011;53413;49.878;8.142;2023-02-07T05:37:27;12.60;;;4.67;;
66559;SDS011;53413;49.878;8.142;2023-02-07T05:39:52;13.93;;;5.10;;
66559;SDS011;53413;49.878;8.142;2023-02-07T05:42:18;14.70;;;5.50;;
66559;SDS011;53413;49.878;8.142;2023-02-07T05:44:43;14.17;;;5.40;;
66559;SDS011;53413;49.878;8.142;2023-02-07T05:47:09;15.40;;;5.35;;
66559;SDS011;53413;49.878;8.142;2023-02-07T05:49:34;13.27;;;5.33;;
66559;SDS011;53413;49.878;8.142;2023-02-07T05:52:00;13.30;;;5.30;;
66559;SDS011;53413;49.878;8.142;2023-02-07T05:54:25;18.33;;;6.00;;
66559;SDS011;53413;49.878;8.142;2023-02-07T05:56:50;17.60;;;6.53;;
66559;SDS011;53413;49.878;8.142;2023-02-07T05:59:16;16.37;;;6.37;;
66559;SDS011;53413;49.878;8.142;2023-02-07T06:01:41;16.20;;;6.60;;
66559;SDS011;53413;49.878;8.142;2023-02-07T06:04:07;15.37;;;6.07;;
66559;SDS011;53413;49.878;8.142;2023-02-07T06:06:32;15.70;;;5.72;;
66559;SDS011;53413;49.878;8.142;2023-02-07T06:08:57;17.30;;;6.83;;
66559;SDS011;53413;49.878;8.142;2023-02-07T06:11:23;17.73;;;7.20;;
66559;SDS011;53413;49.878;8.142;2023-02-07T06:13:48;21.43;;;7.47;;
66559;SDS011;53413;49.878;8.142;2023-02-07T06:16:13;17.73;;;7.20;;
66559;SDS011;53413;49.878;8.142;2023-02-07T06:18:39;20.30;;;7.73;;
66559;SDS011;53413;49.878;8.142;2023-02-07T06:21:04;20.30;;;8.30;;
66559;SDS011;53413;49.878;8.142;2023-02-07T06:23:30;19.02;;;8.00;;
66559;SDS011;53413;49.878;8.142;2023-02-07T06:25:55;21.60;;;8.47;;
66559;SDS011;53413;49.878;8.142;2023-02-07T06:28:21;21.67;;;8.40;;
66559;SDS011;53413;49.878;8.142;2023-02-07T06:30:46;19.58;;;8.02;;
66559;SDS011;53413;49.878;8.142;2023-02-07T06:33:12;19.70;;;7.63;;
66559;SDS011;53413;49.878;8.142;2023-02-07T06:35:37;20.00;;;7.87;;
66559;SDS011;53413;49.878;8.142;2023-02-07T06:38:02;19.93;;;9.03;;
66559;SDS011;53413;49.878;8.142;2023-02-07T06:40:28;18.13;;;5.90;;
66559;SDS011;53413;49.878;8.142;2023-02-07T06:42:53;20.10;;;8.03;;
66559;SDS011;53413;49.878;8.142;2023-02-07T06:45:19;23.98;;;8.30;;
66559;SDS011;53413;49.878;8.142;2023-02-07T06:47:44;21.40;;;7.80;;
66559;SDS011;53413;49.878;8.142;2023-02-07T06:50:10;20.63;;;7.40;;
66559;SDS011;53413;49.878;8.142;2023-02-07T06:52:35;19.65;;;6.93;;
66559;SDS011;53413;49.878;8.142;2023-02-07T06:55:01;23.63;;;8.90;;
66559;SDS011;53413;49.878;8.142;2023-02-07T06:57:26;21.87;;;8.43;;
66559;SDS011;53413;49.878;8.142;2023-02-07T06:59:51;20.73;;;8.03;;
66559;SDS011;53413;49.878;8.142;2023-02-07T07:02:17;20.80;;;7.60;;
66559;SDS011;53413;49.878;8.142;2023-02-07T07:04:42;21.67;;;7.80;;
66559;SDS011;53413;49.878;8.142;2023-02-07T07:07:07;25.70;;;9.00;;
66559;SDS011;53413;49.878;8.142;2023-02-07T07:09:33;21.53;;;8.40;;
66559;SDS011;53413;49.878;8.142;2023-02-07T07:11:58;23.35;;;8.45;;
66559;SDS011;53413;49.878;8.142;2023-02-07T07:14:24;19.83;;;7.93;;
66559;SDS011;53413;49.878;8.142;2023-02-07T07:16:49;21.30;;;7.90;;
66559;SDS011;53413;49.878;8.142;2023-02-07T07:19:14;21.37;;;8.07;;
66559;SDS011;53413;49.878;8.142;2023-02-07T07:21:40;22.37;;;8.03;;
66559;SDS011;53413;49.878;8.142;2023-02-07T07:24:05;19.73;;;7.23;;
66559;SDS011;53413;49.878;8.142;2023-02-07T07:26:31;20.58;;;8.48;;
66559;SDS011;53413;49.878;8.142;2023-02-07T07:28:56;22.27;;;8.60;;
66559;SDS011;53413;49.878;8.142;2023-02-07T07:31:24;15.88;;;6.43;;
66559;SDS011;53413;49.878;8.142;2023-02-07T07:33:50;17.77;;;6.57;;
66559;SDS011;53413;49.878;8.142;2023-02-07T07:36:16;20.50;;;8.00;;
66559;SDS011;53413;49.878;8.142;2023-02-07T07:38:42;21.37;;;8.53;;
66559;SDS011;53413;49.878;8.142;2023-02-07T07:41:07;21.58;;;8.32;;
66559;SDS011;53413;49.878;8.142;2023-02-07T07:43:32;20.10;;;7.47;;
66559;SDS011;53413;49.878;8.142;2023-02-07T07:45:58;21.63;;;8.27;;
66559;SDS011;53413;49.878;8.142;2023-02-07T07:48:24;20.27;;;8.43;;
66559;SDS011;53413;49.878;8.142;2023-02-07T07:50:50;21.45;;;8.35;;
66559;SDS011;53413;49.878;8.142;2023-02-07T07:53:15;20.23;;;8.60;;
66559;SDS011;53413;49.878;8.142;2023-02-07T07:55:42;18.83;;;7.13;;
66559;SDS011;53413;49.878;8.142;2023-02-07T07:58:16;19.88;;;8.23;;
66559;SDS011;53413;49.878;8.142;2023-02-07T08:00:42;18.75;;;8.40;;
66559;SDS011;53413;49.878;8.142;2023-02-07T08:03:07;19.27;;;7.97;;
66559;SDS011;53413;49.878;8.142;2023-02-07T08:05:32;18.50;;;8.53;;
66559;SDS011;53413;49.878;8.142;2023-02-07T08:07:58;18.23;;;7.93;;
66559;SDS011;53413;49.878;8.142;2023-02-07T08:10:23;15.32;;;8.15;;
66559;SDS011;53413;49.878;8.142;2023-02-07T08:12:48;19.73;;;8.75;;
66559;SDS011;53413;49.878;8.142;2023-02-07T08:15:14;18.93;;;8.93;;
66559;SDS011;53413;49.878;8.142;2023-02-07T08:17:39;17.17;;;7.77;;
66559;SDS011;53413;49.878;8.142;2023-02-07T08:20:05;16.93;;;8.03;;
66559;SDS011;53413;49.878;8.142;2023-02-07T08:22:30;18.20;;;8.20;;
66559;SDS011;53413;49.878;8.142;2023-02-07T08:24:56;16.10;;;8.10;;
66559;SDS011;53413;49.878;8.142;2023-02-07T08:27:21;14.73;;;7.73;;
66559;SDS011;53413;49.878;8.142;2023-02-07T08:29:46;17.97;;;8.70;;
66559;SDS011;53413;49.878;8.142;2023-02-07T08:32:14;18.67;;;8.93;;
66559;SDS011;53413;49.878;8.142;2023-02-07T08:34:39;16.57;;;8.70;;
66559;SDS011;53413;49.878;8.142;2023-02-07T08:37:05;15.90;;;8.37;;
66559;SDS011;53413;49.878;8.142;2023-02-07T08:39:32;17.00;;;9.20;;
66559;SDS011;53413;49.878;8.142;2023-02-07T08:41:58;16.15;;;8.88;;
66559;SDS011;53413;49.878;8.142;2023-02-07T08:44:24;16.40;;;9.40;;
66559;SDS011;53413;49.878;8.142;2023-02-07T08:46:49;16.03;;;8.53;;
66559;SDS011;53413;49.878;8.142;2023-02-07T08:49:15;16.60;;;9.53;;
66559;SDS011;53413;49.878;8.142;2023-02-07T08:51:40;17.50;;;9.30;;
66559;SDS011;53413;49.878;8.142;2023-02-07T08:54:06;17.75;;;9.43;;
66559;SDS011;53413;49.878;8.142;2023-02-07T08:56:32;15.82;;;9.40;;
66559;SDS011;53413;49.878;8.142;2023-02-07T08:58:57;16.17;;;8.97;;
66559;SDS011;53413;49.878;8.142;2023-02-07T09:01:23;15.10;;;8.50;;
66559;SDS011;53413;49.878;8.142;2023-02-07T09:03:48;16.50;;;9.40;;
66559;SDS011;53413;49.878;8.142;2023-02-07T09:06:13;16.30;;;8.93;;
66559;SDS011;53413;49.878;8.142;2023-02-07T09:08:39;16.47;;;9.20;;
66559;SDS011;53413;49.878;8.142;2023-02-07T09:11:04;17.08;;;9.30;;
66559;SDS011;53413;49.878;8.142;2023-02-07T09:13:29;15.73;;;8.98;;
66559;SDS011;53413;49.878;8.142;2023-02-07T09:15:55;16.43;;;8.47;;
66559;SDS011;53413;49.878;8.142;2023-02-07T09:18:22;15.27;;;8.43;;
66559;SDS011;53413;49.878;8.142;2023-02-07T09:20:49;15.82;;;8.82;;
66559;SDS011;53413;49.878;8.142;2023-02-07T09:23:14;16.27;;;8.82;;
66559;SDS011;53413;49.878;8.142;2023-02-07T09:25:46;16.65;;;9.30;;
66559;SDS011;53413;49.878;8.142;2023-02-07T09:28:13;16.17;;;8.73;;
66559;SDS011;53413;49.878;8.142;2023-02-07T09:30:43;16.02;;;9.23;;
66559;SDS011;53413;49.878;8.142;2023-02-07T09:33:10;14.32;;;8.88;;
66559;SDS011;53413;49.878;8.142;2023-02-07T09:35:37;15.18;;;8.80;;
66559;SDS011;53413;49.878;8.142;2023-02-07T09:38:03;15.93;;;8.90;;
66559;SDS011;53413;49.878;8.142;2023-02-07T09:40:31;14.83;;;8.47;;
66559;SDS011;53413;49.878;8.142;2023-02-07T09:45:55;16.27;;;9.00;;
66559;SDS011;53413;49.878;8.142;2023-02-07T09:48:26;14.80;;;8.00;;
66559;SDS011;53413;49.878;8.142;2023-02-07T09:51:01;14.60;;;8.23;;
66559;SDS011;53413;49.878;8.142;2023-02-07T09:56:04;16.15;;;8.75;;
66559;SDS011;53413;49.878;8.142;2023-02-07T09:58:41;15.95;;;8.75;;
66559;SDS011;53413;49.878;8.142;2023-02-07T10:01:16;15.60;;;8.80;;
66559;SDS011;53413;49.878;8.142;2023-02-07T10:06:38;15.37;;;7.47;;
66559;SDS011;53413;49.878;8.142;2023-02-07T10:09:07;15.55;;;8.48;;
66559;SDS011;53413;49.878;8.142;2023-02-07T10:19:56;17.87;;;8.17;;
66559;SDS011;53413;49.878;8.142;2023-02-07T10:25:12;17.00;;;8.25;;
66559;SDS011;53413;49.878;8.142;2023-02-07T10:30:39;17.73;;;7.65;;
66559;SDS011;53413;49.878;8.142;2023-02-07T10:33:15;19.47;;;8.30;;
66559;SDS011;53413;49.878;8.142;2023-02-07T10:35:43;18.13;;;8.07;;
66559;SDS011;53413;49.878;8.142;2023-02-07T10:40:48;15.18;;;6.38;;
66559;SDS011;53413;49.878;8.142;2023-02-07T10:43:30;17.40;;;7.47;;
66559;SDS011;53413;49.878;8.142;2023-02-07T10:46:01;16.30;;;7.27;;
66559;SDS011;53413;49.878;8.142;2023-02-07T10:48:33;17.17;;;8.07;;
66559;SDS011;53413;49.878;8.142;2023-02-07T10:50:59;18.15;;;7.60;;
66559;SDS011;53413;49.878;8.142;2023-02-07T10:56:18;17.90;;;7.85;;
66559;SDS011;53413;49.878;8.142;2023-02-07T10:58:46;18.23;;;7.57;;
66559;SDS011;53413;49.878;8.142;2023-02-07T11:01:20;18.52;;;7.25;;
66559;SDS011;53413;49.878;8.142;2023-02-07T11:03:48;19.75;;;8.25;;
66559;SDS011;53413;49.878;8.142;2023-02-07T11:06:15;17.95;;;8.18;;
66559;SDS011;53413;49.878;8.142;2023-02-07T11:08:48;18.70;;;8.18;;
66559;SDS011;53413;49.878;8.142;2023-02-07T11:13:50;15.40;;;7.10;;
66559;SDS011;53413;49.878;8.142;2023-02-07T11:16:17;18.15;;;7.25;;
66559;SDS011;53413;49.878;8.142;2023-02-07T11:19:01;17.38;;;7.13;;
66559;SDS011;53413;49.878;8.142;2023-02-07T11:21:29;16.83;;;7.05;;
66559;SDS011;53413;49.878;8.142;2023-02-07T11:26:39;17.97;;;7.53;;
66559;SDS011;53413;49.878;8.142;2023-02-07T11:29:21;17.30;;;7.60;;
66559;SDS011;53413;49.878;8.142;2023-02-07T11:31:48;14.40;;;6.13;;
66559;SDS011;53413;49.878;8.142;2023-02-07T11:36:48;15.00;;;7.22;;
66559;SDS011;53413;49.878;8.142;2023-02-07T11:39:14;16.83;;;6.90;;
66559;SDS011;53413;49.878;8.142;2023-02-07T11:41:51;15.95;;;7.22;;
66559;SDS011;53413;49.878;8.142;2023-02-07T11:44:24;15.43;;;6.77;;
66559;SDS011;53413;49.878;8.142;2023-02-07T11:46:51;15.30;;;7.05;;
66559;SDS011;53413;49.878;8.142;2023-02-07T11:49:27;15.27;;;6.72;;
66559;SDS011;53413;49.878;8.142;2023-02-07T11:52:04;17.80;;;6.68;;
66559;SDS011;53413;49.878;8.142;2023-02-07T11:54:30;16.75;;;6.78;;
66559;SDS011;53413;49.878;8.142;2023-02-07T11:57:02;17.13;;;7.40;;
66559;SDS011;53413;49.878;8.142;2023-02-07T11:59:29;17.50;;;7.20;;
66559;SDS011;53413;49.878;8.142;2023-02-07T12:01:58;14.65;;;5.72;;
66559;SDS011;53413;49.878;8.142;2023-02-07T12:04:29;15.38;;;6.05;;
66559;SDS011;53413;49.878;8.142;2023-02-07T12:07:09;16.15;;;7.13;;
66559;SDS011;53413;49.878;8.142;2023-02-07T12:12:15;12.60;;;5.85;;
66559;SDS011;53413;49.878;8.142;2023-02-07T12:14:48;17.00;;;7.93;;
66559;SDS011;53413;49.878;8.142;2023-02-07T12:17:20;17.55;;;6.85;;
66559;SDS011;53413;49.878;8.142;2023-02-07T12:19:52;16.98;;;7.38;;
66559;SDS011;53413;49.878;8.142;2023-02-07T12:23:25;17.90;;;7.20;;
66559;SDS011;53413;49.878;8.142;2023-02-07T12:25:26;15.45;;;6.35;;
66559;SDS011;53413;49.878;8.142;2023-02-07T12:27:58;14.50;;;6.65;;
66559;SDS011;53413;49.878;8.142;2023-02-07T12:30:30;15.45;;;6.32;;
66559;SDS011;53413;49.878;8.142;2023-02-07T12:35:58;18.13;;;6.13;;
66559;SDS011;53413;49.878;8.142;2023-02-07T12:41:07;15.95;;;6.60;;
66559;SDS011;53413;49.878;8.142;2023-02-07T12:46:37;15.48;;;6.50;;
66559;SDS011;53413;49.878;8.142;2023-02-07T12:57:23;16.27;;;6.85;;
66559;SDS011;53413;49.878;8.142;2023-02-07T13:00:03;15.52;;;6.78;;
66559;SDS011;53413;49.878;8.142;2023-02-07T13:11:40;15.07;;;6.50;;
66559;SDS011;53413;49.878;8.142;2023-02-07T13:22:05;15.23;;;6.95;;
66559;SDS011;53413;49.878;8.142;2023-02-07T13:24:41;14.98;;;6.50;;
66559;SDS011;53413;49.878;8.142;2023-02-07T13:27:10;12.70;;;5.00;;
66559;SDS011;53413;49.878;8.142;2023-02-07T13:29:44;14.30;;;6.30;;
66559;SDS011;53413;49.878;8.142;2023-02-07T13:32:20;15.65;;;6.15;;
66559;SDS011;53413;49.878;8.142;2023-02-07T13:35:00;13.35;;;5.53;;
66559;SDS011;53413;49.878;8.142;2023-02-07T13:38:15;14.10;;;5.80;;
66559;SDS011;53413;49.878;8.142;2023-02-07T13:40:51;16.98;;;6.22;;
66559;SDS011;53413;49.878;8.142;2023-02-07T13:49:07;14.13;;;6.50;;
66559;SDS011;53413;49.878;8.142;2023-02-07T13:51:52;15.15;;;6.65;;
66559;SDS011;53413;49.878;8.142;2023-02-07T13:54:37;14.98;;;6.10;;
66559;SDS011;53413;49.878;8.142;2023-02-07T14:00:19;13.65;;;5.85;;
66559;SDS011;53413;49.878;8.142;2023-02-07T14:02:58;16.52;;;6.22;;
66559;SDS011;53413;49.878;8.142;2023-02-07T14:05:32;15.70;;;6.88;;
66559;SDS011;53413;49.878;8.142;2023-02-07T14:08:00;14.57;;;6.38;;
66559;SDS011;53413;49.878;8.142;2023-02-07T14:13:42;15.82;;;6.35;;
66559;SDS011;53413;49.878;8.142;2023-02-07T14:16:08;14.60;;;6.10;;
66559;SDS011;53413;49.878;8.142;2023-02-07T14:18:42;14.98;;;5.80;;
66559;SDS011;53413;49.878;8.142;2023-02-07T14:23:48;14.40;;;6.32;;
66559;SDS011;53413;49.878;8.142;2023-02-07T14:31:47;15.02;;;6.47;;
66559;SDS011;53413;49.878;8.142;2023-02-07T14:34:21;13.65;;;6.32;;
66559;SDS011;53413;49.878;8.142;2023-02-07T14:36:50;14.20;;;6.25;;
66559;SDS011;53413;49.878;8.142;2023-02-07T14:41:44;13.83;;;5.50;;
66559;SDS011;53413;49.878;8.142;2023-02-07T14:44:22;13.00;;;5.90;;
66559;SDS011;53413;49.878;8.142;2023-02-07T14:46:52;14.48;;;5.72;;
66559;SDS011;53413;49.878;8.142;2023-02-07T14:52:02;13.30;;;5.90;;
66559;SDS011;53413;49.878;8.142;2023-02-07T14:54:44;14.98;;;5.97;;
66559;SDS011;53413;49.878;8.142;2023-02-07T14:59:53;14.18;;;5.85;;
66559;SDS011;53413;49.878;8.142;2023-02-07T15:05:14;13.95;;;5.90;;
66559;SDS011;53413;49.878;8.142;2023-02-07T15:07:43;12.23;;;5.22;;
66559;SDS011;53413;49.878;8.142;2023-02-07T15:12:46;11.57;;;4.72;;
66559;SDS011;53413;49.878;8.142;2023-02-07T15:15:16;13.98;;;5.38;;
66559;SDS011;53413;49.878;8.142;2023-02-07T15:17:44;13.45;;;5.65;;
66559;SDS011;53413;49.878;8.142;2023-02-07T15:20:13;12.83;;;5.30;;
66559;SDS011;53413;49.878;8.142;2023-02-07T15:22:42;13.70;;;4.97;;
66559;SDS011;53413;49.878;8.142;2023-02-07T15:25:12;13.55;;;5.60;;
66559;SDS011;53413;49.878;8.142;2023-02-07T15:27:38;14.77;;;5.90;;
66559;SDS011;53413;49.878;8.142;2023-02-07T15:30:04;16.07;;;6.60;;
66559;SDS011;53413;49.878;8.142;2023-02-07T15:32:32;15.85;;;6.35;;
66559;SDS011;53413;49.878;8.142;2023-02-07T15:37:42;16.47;;;6.47;;
66559;SDS011;53413;49.878;8.142;2023-02-07T15:40:13;14.40;;;6.57;;
66559;SDS011;53413;49.878;8.142;2023-02-07T15:42:50;16.63;;;6.78;;
66559;SDS011;53413;49.878;8.142;2023-02-07T15:45:27;14.77;;;6.00;;
66559;SDS011;53413;49.878;8.142;2023-02-07T15:48:01;16.23;;;6.72;;
66559;SDS011;53413;49.878;8.142;2023-02-07T15:50:33;16.53;;;7.00;;
66559;SDS011;53413;49.878;8.142;2023-02-07T15:53:01;16.45;;;6.63;;
66559;SDS011;53413;49.878;8.142;2023-02-07T15:55:31;14.88;;;6.57;;
66559;SDS011;53413;49.878;8.142;2023-02-07T15:58:01;15.75;;;6.10;;
66559;SDS011;53413;49.878;8.142;2023-02-07T16:00:31;16.42;;;6.47;;
66559;SDS011;53413;49.878;8.142;2023-02-07T16:03:10;14.80;;;5.87;;
66559;SDS011;53413;49.878;8.142;2023-02-07T16:05:41;14.05;;;5.85;;
66559;SDS011;53413;49.878;8.142;2023-02-07T16:08:26;13.77;;;5.57;;
66559;SDS011;53413;49.878;8.142;2023-02-07T16:16:37;17.80;;;6.60;;
66559;SDS011;53413;49.878;8.142;2023-02-07T16:21:39;16.67;;;6.78;;
66559;SDS011;53413;49.878;8.142;2023-02-07T16:24:07;17.23;;;6.55;;
66559;SDS011;53413;49.878;8.142;2023-02-07T16:26:33;16.85;;;6.80;;
66559;SDS011;53413;49.878;8.142;2023-02-07T16:29:00;17.48;;;7.18;;
66559;SDS011;53413;49.878;8.142;2023-02-07T16:31:27;19.37;;;7.20;;
66559;SDS011;53413;49.878;8.142;2023-02-07T16:33:54;16.42;;;7.00;;
66559;SDS011;53413;49.878;8.142;2023-02-07T16:36:20;18.00;;;7.30;;
66559;SDS011;53413;49.878;8.142;2023-02-07T16:38:45;17.73;;;7.40;;
66559;SDS011;53413;49.878;8.142;2023-02-07T16:41:32;18.57;;;7.20;;
66559;SDS011;53413;49.878;8.142;2023-02-07T16:44:00;17.65;;;7.15;;
66559;SDS011;53413;49.878;8.142;2023-02-07T16:46:29;19.60;;;7.20;;
66559;SDS011;53413;49.878;8.142;2023-02-07T16:48:54;18.73;;;7.53;;
66559;SDS011;53413;49.878;8.142;2023-02-07T16:51:19;18.73;;;7.27;;
66559;SDS011;53413;49.878;8.142;2023-02-07T16:53:45;18.20;;;7.20;;
66559;SDS011;53413;49.878;8.142;2023-02-07T16:56:11;17.80;;;7.03;;
66559;SDS011;53413;49.878;8.142;2023-02-07T16:58:41;17.05;;;7.03;;
66559;SDS011;53413;49.878;8.142;2023-02-07T17:01:08;18.67;;;7.70;;
66559;SDS011;53413;49.878;8.142;2023-02-07T17:03:39;18.52;;;7.10;;
66559;SDS011;53413;49.878;8.142;2023-02-07T17:06:04;21.53;;;7.40;;
66559;SDS011;53413;49.878;8.142;2023-02-07T17:08:32;19.30;;;7.82;;
66559;SDS011;53413;49.878;8.142;2023-02-07T17:11:01;18.30;;;7.63;;
66559;SDS011;53413;49.878;8.142;2023-02-07T17:13:29;17.17;;;7.40;;
66559;SDS011;53413;49.878;8.142;2023-02-07T17:15:55;16.38;;;7.15;;
66559;SDS011;53413;49.878;8.142;2023-02-07T17:18:22;16.27;;;7.05;;
66559;SDS011;53413;49.878;8.142;2023-02-07T17:20:47;20.23;;;7.85;;
66559;SDS011;53413;49.878;8.142;2023-02-07T17:23:13;17.97;;;7.20;;
66559;SDS011;53413;49.878;8.142;2023-02-07T17:25:38;19.37;;;7.77;;